Time;durP1;ratioP1;P1;durP2;ratioP2;P2;SDS_P1;SDS_P2;PMS_P1;PMS_P2;Temp;Humidity;BMP_temperature;BMP_pressure;BME280_temperature;BME280_humidity;BME280_pressure;Samples;Min_cycle;Max_cycle;Signal;HPM_P1;HPM_P2
2022/11/11 00:01:00;;;;;;;13.53;12.07;;;;;;;6.24;100.00;98113.88;4974832;28;20271;-67
2022/11/11 00:03:26;;;;;;;14.33;11.47;;;;;;;6.12;100.00;98122.25;4975264;28;20220;-68
2022/11/11 00:05:51;;;;;;;13.77;12.27;;;;;;;6.13;100.00;98116.84;4976375;28;20270;-68
2022/11/11 00:08:17;;;;;;;13.47;12.13;;;;;;;6.11;100.00;98123.22;4986676;28;20188;-68
2022/11/11 00:10:42;;;;;;;14.33;12.93;;;;;;;6.09;100.00;98122.56;4967241;28;20652;-68
2022/11/11 00:13:08;;;;;;;14.10;12.63;;;;;;;6.11;100.00;98120.59;4981114;28;20486;-66
2022/11/11 00:15:36;;;;;;;13.80;12.40;;;;;;;6.09;100.00;98117.34;4974870;28;20204;-68
2022/11/11 00:26:14;;;;;;;14.43;11.93;;;;;;;6.05;100.00;98116.06;4974399;28;20187;-67
2022/11/11 00:28:40;;;;;;;16.53;11.53;;;;;;;6.00;100.00;98113.13;4956335;28;20335;-67
2022/11/11 00:31:08;;;;;;;12.60;11.40;;;;;;;5.96;100.00;98124.88;4957021;28;20214;-67
2022/11/11 00:33:33;;;;;;;13.57;11.67;;;;;;;6.00;100.00;98126.97;4989607;28;20192;-68
2022/11/11 00:35:59;;;;;;;14.83;11.57;;;;;;;6.03;100.00;98125.81;4992298;28;20184;-69
2022/11/11 00:41:09;;;;;;;14.13;11.70;;;;;;;6.02;100.00;98124.22;4982987;28;20178;-68
2022/11/11 00:43:35;;;;;;;13.17;11.87;;;;;;;6.00;100.00;98139.97;4993715;28;20188;-68
2022/11/11 00:51:28;;;;;;;14.00;11.53;;;;;;;5.70;100.00;98141.41;4981636;28;20187;-68
2022/11/11 00:53:54;;;;;;;13.23;11.87;;;;;;;5.64;100.00;98143.84;4974066;28;20565;-66
2022/11/11 00:56:20;;;;;;;13.43;11.30;;;;;;;5.64;100.00;98142.06;4975980;28;20192;-66
2022/11/11 00:58:46;;;;;;;17.00;12.23;;;;;;;5.64;100.00;98144.66;4975507;28;20208;-68
2022/11/11 01:01:11;;;;;;;13.77;12.10;;;;;;;5.67;100.00;98139.16;4978944;28;20196;-67
2022/11/11 01:03:37;;;;;;;13.77;11.87;;;;;;;5.75;100.00;98148.72;4967875;28;20191;-66
2022/11/11 01:06:03;;;;;;;12.67;11.40;;;;;;;5.78;100.00;98149.22;4975407;28;20642;-68
2022/11/11 01:08:30;;;;;;;12.50;11.33;;;;;;;5.88;100.00;98158.69;4987454;28;20192;-66
2022/11/11 01:10:55;;;;;;;12.10;11.07;;;;;;;5.95;100.00;98155.28;4984675;28;20533;-67
2022/11/11 01:13:29;;;;;;;15.20;12.37;;;;;;;6.10;100.00;98145.81;4973562;28;20207;-69
2022/11/11 01:16:06;;;;;;;13.63;12.23;;;;;;;6.00;100.00;98149.56;4987986;28;20268;-67
2022/11/11 01:18:32;;;;;;;13.73;12.53;;;;;;;5.93;100.00;98153.78;4944316;28;20314;-67
2022/11/11 01:21:04;;;;;;;16.10;12.70;;;;;;;5.76;100.00;98142.53;4989880;28;20255;-68
2022/11/11 01:23:31;;;;;;;14.70;12.90;;;;;;;5.85;100.00;98152.00;4993025;28;20231;-67
2022/11/11 01:26:16;;;;;;;13.30;11.90;;;;;;;5.76;100.00;98145.97;4992636;28;20184;-68
2022/11/11 01:28:43;;;;;;;14.70;12.57;;;;;;;5.74;100.00;98136.72;4989965;28;20234;-68
2022/11/11 01:31:11;;;;;;;12.73;11.50;;;;;;;5.64;100.00;98138.63;4992734;28;20187;-68
2022/11/11 01:33:37;;;;;;;13.63;12.27;;;;;;;5.59;100.00;98146.13;4992708;28;20211;-67
2022/11/11 01:36:08;;;;;;;14.77;12.63;;;;;;;5.62;100.00;98145.81;4992423;28;20234;-67
2022/11/11 01:38:34;;;;;;;15.50;13.60;;;;;;;5.65;100.00;98135.88;4991343;28;20250;-66
2022/11/11 01:41:31;;;;;;;13.50;12.10;;;;;;;5.66;100.00;98137.50;4973279;28;20216;-67
2022/11/11 01:43:46;;;;;;;15.77;13.67;;;;;;;5.85;100.00;98141.59;4973942;28;20586;-67
2022/11/11 01:46:29;;;;;;;13.87;12.40;;;;;;;5.84;100.00;98145.97;4973372;28;20184;-67
2022/11/11 01:49:18;;;;;;;14.40;12.90;;;;;;;5.89;100.00;98148.13;4988624;28;20185;-68
2022/11/11 01:52:07;;;;;;;16.00;12.67;;;;;;;5.96;100.00;98156.09;4973527;28;20177;-67
2022/11/11 01:54:41;;;;;;;14.67;13.27;;;;;;;5.84;100.00;98145.16;4956195;28;20239;-67
2022/11/11 01:57:24;;;;;;;14.87;13.20;;;;;;;5.80;100.00;98149.03;4977705;28;20183;-68
2022/11/11 01:59:59;;;;;;;15.93;14.27;;;;;;;5.77;100.00;98141.59;4977451;28;20280;-67
2022/11/11 02:03:09;;;;;;;16.80;14.97;;;;;;;5.77;100.00;98136.38;4989204;28;20204;-67
2022/11/11 02:05:42;;;;;;;18.93;14.07;;;;;;;5.77;100.00;98132.00;4952672;28;20193;-67
2022/11/11 02:08:33;;;;;;;17.57;14.13;;;;;;;5.86;100.00;98125.78;4978063;28;20242;-67
2022/11/11 02:14:34;;;;;;;15.60;12.03;;;;;;;5.95;100.00;98131.03;4973127;28;20233;-67
2022/11/11 02:16:45;;;;;;;12.93;11.77;;;;;;;6.14;100.00;98135.88;4989709;28;20199;-67
2022/11/11 02:19:11;;;;;;;12.30;11.17;;;;;;;6.14;100.00;98141.09;4991969;28;20204;-68
2022/11/11 02:21:46;;;;;;;13.27;12.03;;;;;;;6.07;100.00;98146.16;4977911;28;20323;-67
2022/11/11 02:24:16;;;;;;;14.33;11.83;;;;;;;6.09;100.00;98153.78;4994945;28;20571;-68
2022/11/11 02:26:42;;;;;;;18.53;11.90;;;;;;;6.02;100.00;98137.22;4992888;28;20275;-67
2022/11/11 02:29:12;;;;;;;14.40;13.00;;;;;;;5.96;100.00;98141.28;4991314;28;20549;-69
2022/11/11 02:31:37;;;;;;;14.33;12.63;;;;;;;5.96;100.00;98143.91;4976949;28;20529;-67
2022/11/11 02:34:03;;;;;;;12.87;11.57;;;;;;;6.02;100.00;98145.81;4987846;28;20204;-66
2022/11/11 02:36:28;;;;;;;13.07;11.77;;;;;;;6.05;100.00;98150.72;4976918;28;20235;-67
2022/11/11 02:38:53;;;;;;;13.87;11.40;;;;;;;5.96;100.00;98145.69;4975872;28;20578;-67
2022/11/11 02:44:03;;;;;;;14.10;12.53;;;;;;;5.88;100.00;98149.09;4995132;28;20195;-66
2022/11/11 02:46:28;;;;;;;13.13;11.83;;;;;;;5.83;100.00;98141.75;4977002;28;20181;-66
2022/11/11 02:48:54;;;;;;;14.77;10.80;;;;;;;5.89;100.00;98142.91;4983540;28;20191;-66
2022/11/11 02:51:19;;;;;;;13.70;12.27;;;;;;;5.91;100.00;98140.94;4985048;28;20262;-66
2022/11/11 02:53:44;;;;;;;13.07;10.93;;;;;;;6.02;100.00;98147.63;4975820;28;20242;-66
2022/11/11 02:56:10;;;;;;;12.07;10.83;;;;;;;6.08;100.00;98144.34;4991405;28;20210;-66
2022/11/11 02:58:35;;;;;;;15.63;12.57;;;;;;;6.12;100.00;98141.28;4994985;28;20572;-66
2022/11/11 03:01:00;;;;;;;16.30;12.33;;;;;;;6.13;100.00;98139.47;4994945;28;20228;-67
2022/11/11 03:03:26;;;;;;;16.97;13.20;;;;;;;5.98;100.00;98139.31;4981653;28;20255;-66
2022/11/11 03:05:51;;;;;;;14.30;12.97;;;;;;;5.96;100.00;98143.91;4959057;28;20177;-67
2022/11/11 03:08:17;;;;;;;13.13;11.87;;;;;;;5.96;100.00;98137.88;4978767;28;20207;-67
2022/11/11 03:10:42;;;;;;;12.17;10.90;;;;;;;6.07;100.00;98140.13;4975451;28;20191;-67
2022/11/11 03:13:07;;;;;;;14.73;13.23;;;;;;;5.98;100.00;98141.09;4975711;28;20184;-66
2022/11/11 03:15:33;;;;;;;14.27;12.73;;;;;;;5.81;100.00;98128.06;4982284;28;20267;-66
2022/11/11 03:17:58;;;;;;;16.70;12.30;;;;;;;5.90;100.00;98133.31;4994823;28;20271;-66
2022/11/11 03:23:11;;;;;;;15.40;13.30;;;;;;;5.72;100.00;98130.84;4993104;28;20171;-66
2022/11/11 03:25:39;;;;;;;19.17;12.93;;;;;;;5.67;100.00;98127.94;4987451;28;20279;-66
2022/11/11 03:28:13;;;;;;;13.03;11.83;;;;;;;5.49;100.00;98125.47;4975018;28;20629;-66
2022/11/11 03:30:40;;;;;;;15.13;12.47;;;;;;;5.38;100.00;98128.38;4975557;28;20181;-66
2022/11/11 03:33:06;;;;;;;13.77;12.47;;;;;;;5.32;100.00;98131.63;4974066;28;20189;-66
2022/11/11 03:35:32;;;;;;;13.27;11.90;;;;;;;5.04;100.00;98131.06;4981451;28;20238;-66
2022/11/11 03:40:43;;;;;;;12.67;11.47;;;;;;;4.72;100.00;98126.59;4994502;28;20637;-66
2022/11/11 03:43:08;;;;;;;12.47;11.30;;;;;;;4.66;100.00;98131.59;4994280;28;20327;-66
2022/11/11 03:45:34;;;;;;;12.73;11.53;;;;;;;4.68;100.00;98132.25;4984003;28;20263;-66
2022/11/11 03:47:59;;;;;;;12.70;11.47;;;;;;;4.75;100.00;98130.66;4975084;28;20192;-66
2022/11/11 03:50:25;;;;;;;15.77;11.40;;;;;;;4.72;100.00;98125.78;4974812;28;20188;-67
2022/11/11 03:52:50;;;;;;;12.20;11.00;;;;;;;4.57;100.00;98123.75;4976019;28;20189;-66
2022/11/11 03:55:15;;;;;;;12.70;11.50;;;;;;;4.48;100.00;98123.88;4974523;28;20192;-66
2022/11/11 03:57:44;;;;;;;11.80;10.77;;;;;;;4.38;100.00;98136.97;4985301;28;20184;-66
2022/11/11 04:00:19;;;;;;;12.70;10.97;;;;;;;4.45;100.00;98143.19;4993914;28;20199;-66
2022/11/11 04:11:04;;;;;;;12.30;11.13;;;;;;;4.68;100.00;98156.41;4961419;28;20685;-67
2022/11/11 04:16:15;;;;;;;13.10;11.07;;;;;;;4.73;100.00;98156.78;4974682;28;20271;-67
2022/11/11 04:21:43;;;;;;;12.43;11.23;;;;;;;4.89;100.00;98153.44;4993726;28;20239;-67
2022/11/11 04:27:02;;;;;;;12.27;10.97;;;;;;;5.18;100.00;98159.06;4984642;28;20235;-67
2022/11/11 04:29:28;;;;;;;11.93;10.73;;;;;;;5.34;100.00;98150.50;4974285;28;20212;-67
2022/11/11 04:34:48;;;;;;;13.90;10.27;;;;;;;5.33;100.00;98148.84;4974029;28;20640;-67
2022/11/11 04:37:15;;;;;;;14.60;10.50;;;;;;;5.38;100.00;98142.19;4966701;28;20695;-67
2022/11/11 04:42:25;;;;;;;11.33;10.23;;;;;;;5.55;100.00;98134.41;4993440;28;20163;-67
2022/11/11 04:47:34;;;;;;;13.23;9.70;;;;;;;5.72;100.00;98141.25;4993163;28;20171;-67
2022/11/11 04:50:00;;;;;;;13.67;11.23;;;;;;;5.69;100.00;98150.19;4993327;28;20593;-67
2022/11/11 04:52:26;;;;;;;14.33;11.70;;;;;;;5.65;100.00;98153.28;4993263;28;20188;-67
2022/11/11 04:57:45;;;;;;;14.50;12.10;;;;;;;5.44;100.00;98162.38;4974685;28;20204;-67
2022/11/11 05:00:16;;;;;;;13.27;11.73;;;;;;;5.53;100.00;98175.38;4973948;28;20224;-67
2022/11/11 05:05:26;;;;;;;13.30;10.80;;;;;;;5.47;100.00;98184.63;4992831;28;20231;-68
2022/11/11 05:10:36;;;;;;;12.10;10.80;;;;;;;5.35;100.00;98210.09;4992964;28;20186;-67
2022/11/11 05:21:26;;;;;;;12.30;11.07;;;;;;;5.17;100.00;98219.00;4987023;28;20187;-67
2022/11/11 05:26:35;;;;;;;10.83;9.77;;;;;;;5.08;100.00;98219.91;4973344;28;20289;-67
2022/11/11 05:29:01;;;;;;;10.63;9.53;;;;;;;5.08;100.00;98215.53;4968089;28;20706;-67
2022/11/11 05:31:28;;;;;;;11.57;9.90;;;;;;;5.07;100.00;98219.09;4991225;28;20230;-67
2022/11/11 05:33:53;;;;;;;13.10;10.10;;;;;;;5.13;100.00;98230.66;4973669;28;20196;-68
2022/11/11 05:36:18;;;;;;;11.80;10.70;;;;;;;5.19;100.00;98233.44;4979892;28;20180;-67
2022/11/11 05:38:44;;;;;;;11.47;10.40;;;;;;;5.13;100.00;98235.84;4992786;28;20671;-67
2022/11/11 05:41:09;;;;;;;10.33;9.30;;;;;;;5.18;100.00;98238.81;4980144;28;20579;-67
2022/11/11 05:43:34;;;;;;;13.53;9.67;;;;;;;5.04;100.00;98237.59;4989054;28;20239;-67
2022/11/11 05:46:00;;;;;;;11.80;9.73;;;;;;;5.02;100.00;98242.13;4988926;28;20649;-67
2022/11/11 05:48:25;;;;;;;11.90;10.70;;;;;;;5.13;100.00;98241.03;4973489;28;20664;-67
2022/11/11 05:50:50;;;;;;;17.10;11.27;;;;;;;5.23;100.00;98246.97;4983296;28;20259;-67
2022/11/11 05:53:22;;;;;;;13.33;11.30;;;;;;;5.16;100.00;98251.97;4992347;28;20188;-69
2022/11/11 05:55:49;;;;;;;12.93;10.47;;;;;;;5.29;100.00;98246.34;4993715;28;20202;-68
2022/11/11 05:58:16;;;;;;;15.77;10.27;;;;;;;5.26;100.00;98252.63;4996072;28;20211;-67
2022/11/11 06:00:41;;;;;;;12.80;10.40;;;;;;;5.31;100.00;98250.38;4987262;28;20181;-67
2022/11/11 06:03:07;;;;;;;13.63;10.40;;;;;;;5.40;100.00;98261.63;4992541;28;20199;-68
2022/11/11 06:05:34;;;;;;;11.10;9.67;;;;;;;5.38;100.00;98264.38;4995714;28;20270;-66
2022/11/11 06:07:59;;;;;;;12.03;9.60;;;;;;;5.46;100.00;98258.41;4976656;28;20202;-67
2022/11/11 06:10:31;;;;;;;11.47;10.17;;;;;;;5.50;100.00;98264.09;4986601;28;20264;-67
2022/11/11 06:13:04;;;;;;;10.80;9.70;;;;;;;5.41;100.00;98269.25;4981828;28;20176;-67
2022/11/11 06:15:34;;;;;;;12.20;10.57;;;;;;;5.44;100.00;98268.16;4976762;28;20177;-67
2022/11/11 06:17:59;;;;;;;11.57;10.53;;;;;;;5.36;100.00;98268.09;4959214;28;20185;-67
2022/11/11 06:20:25;;;;;;;11.77;10.57;;;;;;;5.42;100.00;98272.69;4964542;28;20207;-67
2022/11/11 06:22:56;;;;;;;11.07;9.97;;;;;;;5.39;100.00;98267.81;4995895;28;20188;-67
2022/11/11 06:28:15;;;;;;;10.10;9.10;;;;;;;5.53;100.00;98277.59;4995283;28;20246;-67
2022/11/11 06:30:41;;;;;;;11.90;10.03;;;;;;;5.46;100.00;98283.59;4984917;28;20192;-67
2022/11/11 06:33:08;;;;;;;12.33;10.93;;;;;;;5.34;100.00;98281.28;4976360;28;20190;-67
2022/11/11 06:35:34;;;;;;;10.40;9.47;;;;;;;5.23;100.00;98296.34;4976553;28;20208;-67
2022/11/11 06:38:00;;;;;;;11.00;9.93;;;;;;;5.15;100.00;98297.09;4976295;28;20196;-68
2022/11/11 06:40:25;;;;;;;11.80;10.70;;;;;;;5.08;100.00;98293.47;4984343;28;20228;-67
2022/11/11 06:42:51;;;;;;;12.17;10.23;;;;;;;5.02;100.00;98299.28;4994929;28;20224;-67
2022/11/11 06:45:17;;;;;;;11.43;9.90;;;;;;;4.99;100.00;98300.44;4977767;28;20191;-67
2022/11/11 06:47:42;;;;;;;10.93;9.83;;;;;;;5.07;100.00;98299.66;4993187;28;20191;-67
2022/11/11 06:50:08;;;;;;;10.83;9.70;;;;;;;5.09;100.00;98302.09;4970356;28;20196;-67
2022/11/11 06:52:33;;;;;;;10.70;9.70;;;;;;;5.16;100.00;98303.13;4994858;28;20204;-67
2022/11/11 06:54:58;;;;;;;10.63;9.63;;;;;;;5.22;100.00;98305.09;4983097;28;20286;-67
2022/11/11 06:57:24;;;;;;;16.43;11.37;;;;;;;5.23;100.00;98306.72;4975643;28;20193;-66
2022/11/11 06:59:49;;;;;;;13.20;11.10;;;;;;;5.24;100.00;98301.34;4961102;28;20285;-65
2022/11/11 07:02:14;;;;;;;13.20;11.93;;;;;;;5.01;100.00;98300.28;4975601;28;20189;-65
2022/11/11 07:04:40;;;;;;;12.53;11.43;;;;;;;4.90;100.00;98313.53;4977091;28;20199;-66
2022/11/11 07:07:05;;;;;;;11.90;10.70;;;;;;;4.55;100.00;98311.81;4982170;28;20234;-66
2022/11/11 07:09:30;;;;;;;9.30;8.50;;;;;;;4.60;100.00;98315.59;4994795;28;20184;-67
2022/11/11 07:11:56;;;;;;;9.90;9.00;;;;;;;4.46;100.00;98315.31;4993194;28;20184;-67
2022/11/11 07:14:21;;;;;;;9.73;8.40;;;;;;;4.62;100.00;98317.25;4985352;28;20185;-68
2022/11/11 07:16:46;;;;;;;8.47;7.87;;;;;;;4.65;100.00;98317.75;4983869;28;20223;-67
2022/11/11 07:19:12;;;;;;;8.13;7.43;;;;;;;4.55;100.00;98320.44;4994790;28;20204;-66
2022/11/11 07:21:37;;;;;;;8.67;7.97;;;;;;;4.51;100.00;98334.66;4980614;28;20185;-67
2022/11/11 07:24:02;;;;;;;8.60;7.90;;;;;;;4.48;100.00;98328.97;4975498;28;20598;-66
2022/11/11 07:26:28;;;;;;;8.87;8.10;;;;;;;4.68;100.00;98332.22;4980006;28;20356;-67
2022/11/11 07:28:54;;;;;;;9.00;7.57;;;;;;;4.65;100.00;98329.91;4978079;28;20307;-66
2022/11/11 07:31:20;;;;;;;11.97;7.40;;;;;;;4.69;100.00;98324.25;4987034;28;20211;-65
2022/11/11 07:33:45;;;;;;;8.37;7.57;;;;;;;4.67;100.00;98325.38;4990262;28;20662;-65
2022/11/11 07:36:10;;;;;;;11.37;8.53;;;;;;;4.73;100.00;98320.41;4990167;28;20667;-66
2022/11/11 07:38:36;;;;;;;8.47;7.63;;;;;;;4.85;100.00;98320.94;4990751;28;20932;-66
2022/11/11 07:41:01;;;;;;;9.87;7.70;;;;;;;5.06;100.00;98324.03;4994932;28;20176;-66
2022/11/11 07:43:26;;;;;;;8.17;7.57;;;;;;;5.10;100.00;98316.72;4994376;28;20552;-66
2022/11/11 07:45:52;;;;;;;8.87;7.80;;;;;;;5.29;100.00;98324.31;4965947;28;20267;-65
2022/11/11 07:48:17;;;;;;;8.70;7.90;;;;;;;6.34;100.00;98323.81;4989809;28;20188;-69
2022/11/11 07:50:42;;;;;;;10.43;9.23;;;;;;;7.23;100.00;98326.34;4991069;28;20255;-70
2022/11/11 07:53:08;;;;;;;11.70;10.47;;;;;;;6.38;100.00;98331.13;4983812;28;20621;-65
2022/11/11 07:55:33;;;;;;;9.30;8.57;;;;;;;6.20;100.00;98322.66;4977992;28;20755;-66
2022/11/11 07:57:58;;;;;;;8.97;8.10;;;;;;;6.24;100.00;98327.38;4974267;28;20188;-65
2022/11/11 08:00:24;;;;;;;9.00;8.27;;;;;;;5.85;100.00;98315.91;4966711;28;20218;-64
2022/11/11 08:02:49;;;;;;;9.43;8.50;;;;;;;5.93;100.00;98320.31;4974325;28;20189;-65
2022/11/11 08:05:16;;;;;;;8.90;8.03;;;;;;;6.08;100.00;98321.31;4974965;28;20213;-64
2022/11/11 08:07:41;;;;;;;10.27;9.20;;;;;;;6.18;100.00;98322.84;4973770;28;20561;-66
2022/11/11 08:10:08;;;;;;;10.57;9.23;;;;;;;5.94;100.00;98327.97;4974845;28;20177;-66
2022/11/11 08:15:28;;;;;;;10.33;9.53;;;;;;;5.95;100.00;98327.00;4921948;28;20202;-65
2022/11/11 08:17:53;;;;;;;9.10;8.30;;;;;;;5.90;100.00;98315.47;4967151;28;20212;-65
2022/11/11 08:20:18;;;;;;;8.37;7.57;;;;;;;5.94;100.00;98319.34;4974462;28;20688;-65
2022/11/11 08:22:44;;;;;;;9.00;7.43;;;;;;;6.07;100.00;98314.50;4957404;28;20221;-65
2022/11/11 08:25:13;;;;;;;10.97;7.10;;;;;;;6.01;100.00;98315.97;4957488;28;20203;-64
2022/11/11 08:27:39;;;;;;;7.90;7.10;;;;;;;6.12;100.00;98312.25;4982333;28;20224;-65
2022/11/11 08:30:06;;;;;;;9.00;7.40;;;;;;;5.90;100.00;98311.06;4983566;28;20203;-64
2022/11/11 08:32:31;;;;;;;8.07;7.27;;;;;;;6.15;100.00;98317.13;4975781;28;20185;-65
2022/11/11 08:34:57;;;;;;;7.60;7.00;;;;;;;6.13;100.00;98312.06;4993187;28;20192;-65
2022/11/11 08:37:22;;;;;;;8.40;7.03;;;;;;;5.96;100.00;98312.22;4986455;28;20180;-66
2022/11/11 08:39:47;;;;;;;7.33;6.70;;;;;;;6.11;100.00;98313.22;4992850;28;20205;-65
2022/11/11 08:42:13;;;;;;;7.60;6.80;;;;;;;6.17;100.00;98304.75;4983820;28;20200;-65
2022/11/11 08:44:38;;;;;;;7.47;6.87;;;;;;;6.25;100.00;98302.16;4984834;28;20271;-65
2022/11/11 08:47:04;;;;;;;8.53;6.97;;;;;;;6.29;100.00;98305.28;4980652;28;20319;-65
2022/11/11 08:49:29;;;;;;;7.63;6.97;;;;;;;6.28;100.00;98306.22;4974184;28;20531;-66
2022/11/11 08:51:54;;;;;;;8.53;7.83;;;;;;;6.52;100.00;98306.25;4974818;28;20192;-66
2022/11/11 08:54:20;;;;;;;12.80;11.87;;;;;;;6.56;100.00;98304.94;4977558;28;20194;-65
2022/11/11 08:56:45;;;;;;;7.93;7.27;;;;;;;6.51;100.00;98310.66;4981042;28;20188;-64
2022/11/11 08:59:11;;;;;;;9.50;7.30;;;;;;;6.51;100.00;98315.03;4990141;28;20211;-64
2022/11/11 09:01:37;;;;;;;8.13;7.50;;;;;;;6.76;100.00;98310.59;4980303;28;20701;-65
2022/11/11 09:04:02;;;;;;;7.67;6.97;;;;;;;6.82;100.00;98309.94;4974054;28;20224;-65
2022/11/11 09:06:28;;;;;;;8.80;7.87;;;;;;;6.84;100.00;98321.84;4972486;28;20271;-65
2022/11/11 09:08:53;;;;;;;8.90;8.10;;;;;;;6.82;100.00;98320.38;4973439;28;20196;-65
2022/11/11 09:11:19;;;;;;;8.60;7.90;;;;;;;7.18;100.00;98320.81;4986119;28;20542;-64
2022/11/11 09:13:46;;;;;;;12.10;8.90;;;;;;;7.34;100.00;98320.75;4977415;28;20192;-64
2022/11/11 09:16:11;;;;;;;9.73;8.93;;;;;;;7.61;100.00;98327.34;4983857;28;20188;-64
2022/11/11 09:18:37;;;;;;;10.60;9.50;;;;;;;7.74;100.00;98327.63;4960324;28;22147;-65
2022/11/11 09:21:03;;;;;;;12.13;10.23;;;;;;;7.92;100.00;98323.75;4973756;28;20335;-66
2022/11/11 09:23:28;;;;;;;9.70;8.80;;;;;;;7.94;100.00;98329.63;4977217;28;20310;-65
2022/11/11 09:25:54;;;;;;;9.47;7.77;;;;;;;8.14;100.00;98318.72;4974655;28;20197;-65
2022/11/11 09:28:19;;;;;;;9.37;8.17;;;;;;;8.23;100.00;98315.09;4985120;28;20232;-65
2022/11/11 09:30:44;;;;;;;9.07;8.37;;;;;;;8.40;100.00;98314.03;4995020;28;20266;-65
2022/11/11 09:33:11;;;;;;;8.30;7.07;;;;;;;8.30;100.00;98316.06;4988077;28;20206;-65
2022/11/11 09:35:37;;;;;;;8.30;7.00;;;;;;;8.44;100.00;98317.09;4982196;28;20180;-65
2022/11/11 09:38:03;;;;;;;7.67;6.77;;;;;;;8.64;100.00;98319.03;4986242;28;20243;-65
2022/11/11 09:40:57;;;;;;;7.47;6.80;;;;;;;8.67;100.00;98316.09;4993530;28;20606;-65
2022/11/11 09:43:52;;;;;;;7.27;6.57;;;;;;;8.77;100.00;98315.81;4994747;28;20176;-64
2022/11/11 09:46:28;;;;;;;7.47;6.03;;;;;;;8.65;100.00;98309.41;4995010;28;20207;-64
2022/11/11 09:49:18;;;;;;;8.07;7.27;;;;;;;8.92;100.00;98300.97;4978486;28;20223;-65
2022/11/11 09:51:56;;;;;;;9.87;9.13;;;;;;;9.07;100.00;98307.06;4961860;28;20200;-65
2022/11/11 09:54:57;;;;;;;7.40;6.80;;;;;;;9.08;100.00;98310.47;4980211;28;20176;-66
2022/11/11 09:57:38;;;;;;;7.70;6.93;;;;;;;9.14;100.00;98309.72;4925598;28;20201;-66
2022/11/11 10:00:24;;;;;;;6.53;6.00;;;;;;;9.27;100.00;98299.47;4973454;28;20314;-65
2022/11/11 10:02:52;;;;;;;7.47;6.77;;;;;;;9.51;100.00;98307.03;4977298;28;20180;-65
2022/11/11 10:05:23;;;;;;;7.63;6.97;;;;;;;9.54;100.00;98298.00;4988730;28;20181;-65
2022/11/11 10:08:04;;;;;;;8.27;6.90;;;;;;;9.43;100.00;98304.50;4983621;28;20199;-66
2022/11/11 10:10:49;;;;;;;8.70;7.77;;;;;;;9.78;100.00;98296.88;4992463;28;20172;-65
2022/11/11 10:13:18;;;;;;;12.80;11.77;;;;;;;9.90;100.00;98292.78;4978419;28;20184;-65
2022/11/11 10:16:19;;;;;;;14.30;13.30;;;;;;;9.86;100.00;98294.94;4988912;28;20192;-66
2022/11/11 10:19:00;;;;;;;16.37;15.07;;;;;;;9.82;100.00;98285.03;4977026;28;20205;-65
2022/11/11 10:21:39;;;;;;;17.90;16.70;;;;;;;9.63;100.00;98296.09;4992163;28;20180;-66
2022/11/11 10:24:12;;;;;;;17.63;16.33;;;;;;;9.72;100.00;98295.81;4995725;28;20638;-65
2022/11/11 10:26:40;;;;;;;7.67;6.97;;;;;;;9.66;100.00;98295.72;4990851;28;20263;-65
2022/11/11 10:29:14;;;;;;;11.43;10.40;;;;;;;9.65;100.00;98297.53;4993460;28;20180;-65
2022/11/11 10:31:42;;;;;;;7.23;6.60;;;;;;;9.65;100.00;98294.09;4980031;28;20184;-65
2022/11/11 10:34:13;;;;;;;7.30;6.40;;;;;;;9.95;100.00;98306.97;4976197;28;20180;-65
2022/11/11 10:36:45;;;;;;;8.47;7.43;;;;;;;9.62;100.00;98299.72;4989173;28;20189;-65
2022/11/11 10:39:18;;;;;;;9.33;8.53;;;;;;;9.92;100.00;98304.69;4986457;28;20200;-65
2022/11/11 10:41:47;;;;;;;8.13;7.50;;;;;;;9.90;100.00;98300.66;4990992;28;20180;-66
2022/11/11 10:44:25;;;;;;;11.70;10.83;;;;;;;9.97;100.00;98309.41;4956600;28;20694;-66
2022/11/11 10:47:29;;;;;;;12.10;10.70;;;;;;;10.02;100.00;98302.63;4975964;28;20504;-65
2022/11/11 10:50:01;;;;;;;15.33;14.10;;;;;;;10.17;100.00;98301.78;4948344;28;20196;-66
2022/11/11 10:53:03;;;;;;;14.30;12.90;;;;;;;10.27;100.00;98302.25;4982019;28;20675;-67
2022/11/11 10:55:38;;;;;;;11.17;9.30;;;;;;;10.48;100.00;98304.09;4936663;28;20188;-67
2022/11/11 10:58:48;;;;;;;9.50;8.70;;;;;;;10.49;100.00;98296.03;4984845;28;20191;-67
2022/11/11 11:01:19;;;;;;;18.63;17.30;;;;;;;10.51;100.00;98288.78;4976609;28;20626;-68
2022/11/11 11:03:54;;;;;;;32.03;29.97;;;;;;;10.66;100.00;98288.69;4979378;28;20251;-68
2022/11/11 11:06:23;;;;;;;29.53;27.47;;;;;;;10.93;100.00;98285.25;4984581;28;20666;-66
2022/11/11 11:08:53;;;;;;;23.83;22.00;;;;;;;10.96;100.00;98284.09;4983938;28;20205;-67
2022/11/11 11:11:29;;;;;;;24.27;22.83;;;;;;;11.01;100.00;98277.25;4989695;28;20569;-67
2022/11/11 11:13:59;;;;;;;23.17;21.57;;;;;;;11.02;100.00;98278.88;4980534;28;20672;-68
2022/11/11 11:16:31;;;;;;;28.73;26.93;;;;;;;11.17;100.00;98278.75;4993632;28;20318;-67
2022/11/11 11:19:23;;;;;;;21.97;20.50;;;;;;;11.21;100.00;98280.81;4988480;28;20205;-68
2022/11/11 11:21:50;;;;;;;12.47;11.23;;;;;;;11.15;100.00;98268.44;4975762;28;20272;-70
2022/11/11 11:24:36;;;;;;;11.13;9.13;;;;;;;11.19;100.00;98274.94;4982682;28;20188;-68
2022/11/11 11:27:06;;;;;;;9.37;8.47;;;;;;;11.08;100.00;98274.69;4975274;28;20263;-67
2022/11/11 11:29:36;;;;;;;10.83;9.73;;;;;;;11.04;100.00;98270.78;4984060;28;20193;-68
2022/11/11 11:32:18;;;;;;;9.73;9.03;;;;;;;11.01;100.00;98266.75;4975678;28;20619;-67
2022/11/11 11:34:48;;;;;;;8.00;7.37;;;;;;;11.00;100.00;98277.44;4983453;28;20212;-68
2022/11/11 11:37:14;;;;;;;11.67;8.63;;;;;;;11.02;100.00;98267.56;4968812;28;20593;-67
2022/11/11 11:39:40;;;;;;;10.93;10.10;;;;;;;10.97;100.00;98272.59;4988173;28;20240;-67
2022/11/11 11:42:05;;;;;;;11.93;10.90;;;;;;;11.05;100.00;98270.63;4975930;28;20533;-66
2022/11/11 11:44:36;;;;;;;18.23;16.80;;;;;;;10.95;100.00;98272.78;4984761;28;20663;-66
2022/11/11 11:47:38;;;;;;;23.97;22.37;;;;;;;11.04;100.00;98265.56;4985367;28;20228;-67
2022/11/11 11:50:40;;;;;;;23.57;22.17;;;;;;;11.04;100.00;98271.63;4971927;28;20278;-67
2022/11/11 11:53:27;;;;;;;26.17;24.43;;;;;;;11.11;100.00;98269.84;4973836;28;20190;-68
2022/11/11 11:56:05;;;;;;;15.67;14.37;;;;;;;11.20;100.00;98262.66;4962460;28;20238;-68
2022/11/11 11:59:23;;;;;;;11.37;10.37;;;;;;;11.29;100.00;98255.41;4967228;28;20638;-67
2022/11/11 12:01:59;;;;;;;9.03;8.23;;;;;;;11.37;100.00;98260.50;4921685;28;20584;-67
2022/11/11 12:04:32;;;;;;;9.13;8.33;;;;;;;11.53;100.00;98260.97;4988214;28;20633;-66
2022/11/11 12:07:20;;;;;;;10.00;7.90;;;;;;;11.59;100.00;98265.44;4984581;28;20200;-67
2022/11/11 12:10:08;;;;;;;9.47;8.70;;;;;;;11.60;100.00;98263.59;4990164;28;20207;-68
2022/11/11 12:12:58;;;;;;;10.20;7.97;;;;;;;11.66;100.00;98265.44;4993886;28;20180;-68
2022/11/11 12:15:32;;;;;;;9.60;8.80;;;;;;;11.69;100.00;98265.06;4977267;28;20235;-69
2022/11/11 12:18:16;;;;;;;9.00;8.20;;;;;;;11.83;100.00;98258.06;4993418;28;20184;-67
2022/11/11 12:20:58;;;;;;;12.53;11.33;;;;;;;11.85;100.00;98262.13;4976417;28;20627;-69
2022/11/11 12:23:42;;;;;;;21.10;19.47;;;;;;;11.96;100.00;98263.34;4993781;28;20176;-69
2022/11/11 12:26:13;;;;;;;20.20;18.80;;;;;;;11.98;100.00;98261.34;4972027;28;20186;-68
2022/11/11 12:28:58;;;;;;;27.23;25.47;;;;;;;11.89;100.00;98260.72;4959411;28;20228;-69
2022/11/11 12:32:04;;;;;;;21.83;20.10;;;;;;;11.85;100.00;98263.94;4955316;28;20165;-69
2022/11/11 12:35:04;;;;;;;16.47;15.37;;;;;;;11.90;100.00;98258.91;4950604;28;20224;-69
2022/11/11 12:38:12;;;;;;;11.53;10.70;;;;;;;11.96;100.00;98258.91;4953542;28;20232;-67
2022/11/11 12:40:40;;;;;;;10.50;9.83;;;;;;;11.91;100.00;98260.53;4974297;28;20203;-68
2022/11/11 12:43:21;;;;;;;9.27;8.37;;;;;;;12.04;100.00;98263.16;4972361;28;20296;-68
2022/11/11 12:46:10;;;;;;;10.90;10.00;;;;;;;11.97;100.00;98270.25;4966114;28;20185;-68
2022/11/11 12:48:54;;;;;;;10.07;9.17;;;;;;;11.93;100.00;98259.31;4964340;28;20197;-68
2022/11/11 12:51:42;;;;;;;9.50;8.70;;;;;;;11.82;100.00;98262.50;4956288;28;20635;-68
2022/11/11 12:54:28;;;;;;;8.00;7.30;;;;;;;12.00;100.00;98264.56;4955725;28;20645;-68
2022/11/11 12:57:00;;;;;;;8.00;7.40;;;;;;;12.13;100.00;98255.91;4971523;28;20180;-68